sensor_id;sensor_type;location;lat;lon;timestamp;pressure;altitude;pressure_sealevel;temperature
67966;BMP280;54749;47.850;9.002;2023-03-15T00:01:12;95340.34;;;3.70
67966;BMP280;54749;47.850;9.002;2023-03-15T00:03:42;95357.09;;;3.68
67966;BMP280;54749;47.850;9.002;2023-03-15T00:06:10;95355.53;;;3.67
67966;BMP280;54749;47.850;9.002;2023-03-15T00:08:38;95365.50;;;3.67
67966;BMP280;54749;47.850;9.002;2023-03-15T00:11:05;95369.84;;;3.64
67966;BMP280;54749;47.850;9.002;2023-03-15T00:13:33;95355.88;;;3.61
67966;BMP280;54749;47.850;9.002;2023-03-15T00:16:00;95368.63;;;3.57
67966;BMP280;54749;47.850;9.002;2023-03-15T00:18:29;95360.50;;;3.53
67966;BMP280;54749;47.850;9.002;2023-03-15T00:20:56;95354.09;;;3.49
67966;BMP280;54749;47.850;9.002;2023-03-15T00:23:23;95369.78;;;3.51
67966;BMP280;54749;47.850;9.002;2023-03-15T00:25:51;95381.63;;;3.48
67966;BMP280;54749;47.850;9.002;2023-03-15T00:28:19;95376.72;;;3.47
67966;BMP280;54749;47.850;9.002;2023-03-15T00:30:46;95391.81;;;3.45
67966;BMP280;54749;47.850;9.002;2023-03-15T00:33:14;95388.50;;;3.45
67966;BMP280;54749;47.850;9.002;2023-03-15T00:35:43;95410.38;;;3.41
67966;BMP280;54749;47.850;9.002;2023-03-15T00:38:11;95404.19;;;3.33
67966;BMP280;54749;47.850;9.002;2023-03-15T00:40:40;95407.72;;;3.29
67966;BMP280;54749;47.850;9.002;2023-03-15T00:43:08;95425.31;;;3.28
67966;BMP280;54749;47.850;9.002;2023-03-15T00:45:35;95422.81;;;3.28
67966;BMP280;54749;47.850;9.002;2023-03-15T00:48:03;95430.44;;;3.25
67966;BMP280;54749;47.850;9.002;2023-03-15T00:50:30;95428.06;;;3.23
67966;BMP280;54749;47.850;9.002;2023-03-15T00:52:58;95414.47;;;3.14
67966;BMP280;54749;47.850;9.002;2023-03-15T00:55:27;95436.94;;;3.14
67966;BMP280;54749;47.850;9.002;2023-03-15T00:57:55;95445.31;;;3.13
67966;BMP280;54749;47.850;9.002;2023-03-15T01:00:22;95443.31;;;3.04
67966;BMP280;54749;47.850;9.002;2023-03-15T01:02:52;95458.41;;;3.02
67966;BMP280;54749;47.850;9.002;2023-03-15T01:05:20;95467.56;;;3.02
67966;BMP280;54749;47.850;9.002;2023-03-15T01:07:48;95466.69;;;3.03
67966;BMP280;54749;47.850;9.002;2023-03-15T01:10:15;95474.75;;;2.93
67966;BMP280;54749;47.850;9.002;2023-03-15T01:12:43;95477.41;;;2.75
67966;BMP280;54749;47.850;9.002;2023-03-15T01:15:12;95472.44;;;2.75
67966;BMP280;54749;47.850;9.002;2023-03-15T01:17:41;95494.69;;;2.78
67966;BMP280;54749;47.850;9.002;2023-03-15T01:20:11;95510.41;;;2.79
67966;BMP280;54749;47.850;9.002;2023-03-15T01:22:41;95522.56;;;2.85
67966;BMP280;54749;47.850;9.002;2023-03-15T01:25:08;95522.31;;;2.75
67966;BMP280;54749;47.850;9.002;2023-03-15T01:27:36;95522.47;;;2.57
67966;BMP280;54749;47.850;9.002;2023-03-15T01:30:04;95544.31;;;2.37
67966;BMP280;54749;47.850;9.002;2023-03-15T01:32:32;95545.72;;;2.26
67966;BMP280;54749;47.850;9.002;2023-03-15T01:35:00;95550.22;;;2.19
67966;BMP280;54749;47.850;9.002;2023-03-15T01:37:27;95565.03;;;2.22
67966;BMP280;54749;47.850;9.002;2023-03-15T01:39:54;95554.19;;;2.23
67966;BMP280;54749;47.850;9.002;2023-03-15T01:42:21;95574.41;;;2.17
67966;BMP280;54749;47.850;9.002;2023-03-15T01:44:51;95566.81;;;2.20
67966;BMP280;54749;47.850;9.002;2023-03-15T01:47:19;95571.09;;;2.17
67966;BMP280;54749;47.850;9.002;2023-03-15T01:49:53;95588.72;;;2.14
67966;BMP280;54749;47.850;9.002;2023-03-15T01:52:27;95586.66;;;2.05
67966;BMP280;54749;47.850;9.002;2023-03-15T01:55:10;95600.59;;;1.92
67966;BMP280;54749;47.850;9.002;2023-03-15T01:57:55;95604.06;;;1.90
67966;BMP280;54749;47.850;9.002;2023-03-15T02:00:27;95600.59;;;1.92
67966;BMP280;54749;47.850;9.002;2023-03-15T02:03:07;95621.25;;;1.78
67966;BMP280;54749;47.850;9.002;2023-03-15T02:05:40;95620.31;;;1.80
67966;BMP280;54749;47.850;9.002;2023-03-15T02:08:17;95617.38;;;1.73
67966;BMP280;54749;47.850;9.002;2023-03-15T02:10:51;95629.09;;;1.71
67966;BMP280;54749;47.850;9.002;2023-03-15T02:13:21;95629.97;;;1.70
67966;BMP280;54749;47.850;9.002;2023-03-15T02:15:51;95634.22;;;1.68
67966;BMP280;54749;47.850;9.002;2023-03-15T02:18:35;95636.72;;;1.68
67966;BMP280;54749;47.850;9.002;2023-03-15T02:23:39;95633.78;;;1.60
67966;BMP280;54749;47.850;9.002;2023-03-15T02:28:43;95651.72;;;1.66
67966;BMP280;54749;47.850;9.002;2023-03-15T02:31:11;95663.34;;;1.66
67966;BMP280;54749;47.850;9.002;2023-03-15T02:33:42;95655.38;;;1.59
67966;BMP280;54749;47.850;9.002;2023-03-15T02:36:30;95666.56;;;1.51
67966;BMP280;54749;47.850;9.002;2023-03-15T02:38:58;95663.75;;;1.40
67966;BMP280;54749;47.850;9.002;2023-03-15T02:41:35;95687.38;;;1.32
67966;BMP280;54749;47.850;9.002;2023-03-15T02:44:16;95673.06;;;1.19
67966;BMP280;54749;47.850;9.002;2023-03-15T02:46:47;95693.31;;;1.12
67966;BMP280;54749;47.850;9.002;2023-03-15T02:49:22;95695.38;;;1.03
67966;BMP280;54749;47.850;9.002;2023-03-15T02:51:51;95693.28;;;0.94
67966;BMP280;54749;47.850;9.002;2023-03-15T02:54:18;95711.09;;;0.85
67966;BMP280;54749;47.850;9.002;2023-03-15T02:56:45;95723.09;;;0.76
67966;BMP280;54749;47.850;9.002;2023-03-15T02:59:12;95707.69;;;0.68
67966;BMP280;54749;47.850;9.002;2023-03-15T03:01:39;95717.06;;;0.62
67966;BMP280;54749;47.850;9.002;2023-03-15T03:04:06;95718.22;;;0.55
67966;BMP280;54749;47.850;9.002;2023-03-15T03:06:33;95711.88;;;0.48
67966;BMP280;54749;47.850;9.002;2023-03-15T03:09:02;95717.09;;;0.42
67966;BMP280;54749;47.850;9.002;2023-03-15T03:11:29;95711.47;;;0.39
67966;BMP280;54749;47.850;9.002;2023-03-15T03:13:57;95723.19;;;0.35
67966;BMP280;54749;47.850;9.002;2023-03-15T03:16:24;95723.31;;;0.33
67966;BMP280;54749;47.850;9.002;2023-03-15T03:18:51;95748.16;;;0.33
67966;BMP280;54749;47.850;9.002;2023-03-15T03:21:18;95739.34;;;0.26
67966;BMP280;54749;47.850;9.002;2023-03-15T03:23:45;95758.69;;;0.18
67966;BMP280;54749;47.850;9.002;2023-03-15T03:26:14;95746.44;;;0.14
67966;BMP280;54749;47.850;9.002;2023-03-15T03:28:46;95748.47;;;0.04
67966;BMP280;54749;47.850;9.002;2023-03-15T03:31:19;95775.25;;;-0.02
67966;BMP280;54749;47.850;9.002;2023-03-15T03:33:48;95764.84;;;-0.11
67966;BMP280;54749;47.850;9.002;2023-03-15T03:36:15;95745.03;;;-0.13
67966;BMP280;54749;47.850;9.002;2023-03-15T03:38:44;95752.59;;;-0.16
67966;BMP280;54749;47.850;9.002;2023-03-15T03:41:13;95768.53;;;-0.21
67966;BMP280;54749;47.850;9.002;2023-03-15T03:43:41;95767.03;;;-0.25
67966;BMP280;54749;47.850;9.002;2023-03-15T03:46:09;95772.19;;;-0.29
67966;BMP280;54749;47.850;9.002;2023-03-15T03:48:42;95779.78;;;-0.34
67966;BMP280;54749;47.850;9.002;2023-03-15T03:51:08;95769.19;;;-0.37
67966;BMP280;54749;47.850;9.002;2023-03-15T03:53:36;95779.06;;;-0.35
67966;BMP280;54749;47.850;9.002;2023-03-15T03:56:04;95798.03;;;-0.35
67966;BMP280;54749;47.850;9.002;2023-03-15T03:58:33;95784.88;;;-0.36
67966;BMP280;54749;47.850;9.002;2023-03-15T04:01:09;95784.03;;;-0.35
67966;BMP280;54749;47.850;9.002;2023-03-15T04:03:37;95793.94;;;-0.35
67966;BMP280;54749;47.850;9.002;2023-03-15T04:06:15;95800.50;;;-0.35
67966;BMP280;54749;47.850;9.002;2023-03-15T04:08:44;95783.22;;;-0.36
67966;BMP280;54749;47.850;9.002;2023-03-15T04:11:17;95797.41;;;-0.39
67966;BMP280;54749;47.850;9.002;2023-03-15T04:13:50;95792.53;;;-0.42
67966;BMP280;54749;47.850;9.002;2023-03-15T04:16:17;95810.00;;;-0.44
67966;BMP280;54749;47.850;9.002;2023-03-15T04:18:55;95818.13;;;-0.40
67966;BMP280;54749;47.850;9.002;2023-03-15T04:21:23;95815.53;;;-0.37
67966;BMP280;54749;47.850;9.002;2023-03-15T04:24:02;95809.53;;;-0.32
67966;BMP280;54749;47.850;9.002;2023-03-15T04:26:47;95809.19;;;-0.23
67966;BMP280;54749;47.850;9.002;2023-03-15T04:29:31;95814.72;;;-0.17
67966;BMP280;54749;47.850;9.002;2023-03-15T04:32:13;95815.44;;;-0.14
67966;BMP280;54749;47.850;9.002;2023-03-15T04:34:57;95814.50;;;-0.11
67966;BMP280;54749;47.850;9.002;2023-03-15T04:37:31;95810.41;;;-0.12
67966;BMP280;54749;47.850;9.002;2023-03-15T04:40:12;95832.75;;;-0.12
67966;BMP280;54749;47.850;9.002;2023-03-15T04:42:55;95819.59;;;-0.14
67966;BMP280;54749;47.850;9.002;2023-03-15T04:45:34;95844.59;;;-0.18
67966;BMP280;54749;47.850;9.002;2023-03-15T04:48:19;95859.66;;;-0.23
67966;BMP280;54749;47.850;9.002;2023-03-15T04:50:58;95848.09;;;-0.24
67966;BMP280;54749;47.850;9.002;2023-03-15T04:53:39;95858.88;;;-0.25
67966;BMP280;54749;47.850;9.002;2023-03-15T04:56:33;95872.06;;;-0.23
67966;BMP280;54749;47.850;9.002;2023-03-15T04:59:31;95862.19;;;-0.24
67966;BMP280;54749;47.850;9.002;2023-03-15T05:02:17;95865.59;;;-0.27
67966;BMP280;54749;47.850;9.002;2023-03-15T05:05:11;95864.81;;;-0.29
67966;BMP280;54749;47.850;9.002;2023-03-15T05:07:58;95872.47;;;-0.35
67966;BMP280;54749;47.850;9.002;2023-03-15T05:10:44;95880.09;;;-0.39
67966;BMP280;54749;47.850;9.002;2023-03-15T05:13:29;95886.19;;;-0.47
67966;BMP280;54749;47.850;9.002;2023-03-15T05:16:11;95884.75;;;-0.52
67966;BMP280;54749;47.850;9.002;2023-03-15T05:18:55;95894.09;;;-0.60
67966;BMP280;54749;47.850;9.002;2023-03-15T05:21:52;95894.38;;;-0.68
67966;BMP280;54749;47.850;9.002;2023-03-15T05:24:50;95901.25;;;-0.74
67966;BMP280;54749;47.850;9.002;2023-03-15T05:27:30;95900.50;;;-0.77
67966;BMP280;54749;47.850;9.002;2023-03-15T05:30:12;95894.88;;;-0.82
67966;BMP280;54749;47.850;9.002;2023-03-15T05:33:01;95917.47;;;-0.89
67966;BMP280;54749;47.850;9.002;2023-03-15T05:35:39;95916.75;;;-0.93
67966;BMP280;54749;47.850;9.002;2023-03-15T05:38:30;95904.47;;;-0.96
67966;BMP280;54749;47.850;9.002;2023-03-15T05:41:07;95911.19;;;-0.99
67966;BMP280;54749;47.850;9.002;2023-03-15T05:43:58;95905.44;;;-1.00
67966;BMP280;54749;47.850;9.002;2023-03-15T05:46:50;95897.19;;;-1.00
67966;BMP280;54749;47.850;9.002;2023-03-15T05:49:36;95903.69;;;-0.98
67966;BMP280;54749;47.850;9.002;2023-03-15T05:52:30;95904.38;;;-0.93
67966;BMP280;54749;47.850;9.002;2023-03-15T05:55:08;95915.38;;;-0.77
67966;BMP280;54749;47.850;9.002;2023-03-15T05:58:05;95903.25;;;-0.16
67966;BMP280;54749;47.850;9.002;2023-03-15T06:00:51;95881.06;;;0.65
67966;BMP280;54749;47.850;9.002;2023-03-15T06:03:36;95876.28;;;1.38
67966;BMP280;54749;47.850;9.002;2023-03-15T06:06:11;95887.81;;;2.12
67966;BMP280;54749;47.850;9.002;2023-03-15T06:08:40;95872.75;;;2.84
67966;BMP280;54749;47.850;9.002;2023-03-15T06:11:07;95864.19;;;3.54
67966;BMP280;54749;47.850;9.002;2023-03-15T06:13:36;95870.84;;;4.16
67966;BMP280;54749;47.850;9.002;2023-03-15T06:16:09;95866.13;;;5.14
67966;BMP280;54749;47.850;9.002;2023-03-15T06:18:41;95862.97;;;6.21
67966;BMP280;54749;47.850;9.002;2023-03-15T06:21:08;95870.06;;;7.05
67966;BMP280;54749;47.850;9.002;2023-03-15T06:23:36;95858.47;;;7.77
67966;BMP280;54749;47.850;9.002;2023-03-15T06:26:03;95855.19;;;8.48
67966;BMP280;54749;47.850;9.002;2023-03-15T06:28:31;95858.84;;;9.24
67966;BMP280;54749;47.850;9.002;2023-03-15T06:31:18;95864.66;;;9.91
67966;BMP280;54749;47.850;9.002;2023-03-15T06:33:51;95878.19;;;10.54
67966;BMP280;54749;47.850;9.002;2023-03-15T06:36:18;95852.81;;;11.28
67966;BMP280;54749;47.850;9.002;2023-03-15T06:38:46;95870.28;;;11.90
67966;BMP280;54749;47.850;9.002;2023-03-15T06:41:12;95857.22;;;12.44
67966;BMP280;54749;47.850;9.002;2023-03-15T06:43:42;95857.50;;;12.98
67966;BMP280;54749;47.850;9.002;2023-03-15T06:46:11;95866.72;;;13.64
67966;BMP280;54749;47.850;9.002;2023-03-15T06:48:39;95855.31;;;14.40
67966;BMP280;54749;47.850;9.002;2023-03-15T06:51:08;95868.16;;;15.17
67966;BMP280;54749;47.850;9.002;2023-03-15T06:53:35;95866.53;;;15.84
67966;BMP280;54749;47.850;9.002;2023-03-15T06:56:03;95879.13;;;16.03
67966;BMP280;54749;47.850;9.002;2023-03-15T06:58:30;95867.50;;;15.83
67966;BMP280;54749;47.850;9.002;2023-03-15T07:00:57;95874.94;;;16.19
67966;BMP280;54749;47.850;9.002;2023-03-15T07:03:24;95865.25;;;16.63
67966;BMP280;54749;47.850;9.002;2023-03-15T07:05:51;95854.97;;;17.28
67966;BMP280;54749;47.850;9.002;2023-03-15T07:08:22;95868.44;;;17.76
67966;BMP280;54749;47.850;9.002;2023-03-15T07:10:49;95851.00;;;18.26
67966;BMP280;54749;47.850;9.002;2023-03-15T07:13:17;95864.81;;;19.08
67966;BMP280;54749;47.850;9.002;2023-03-15T07:15:44;95866.16;;;19.92
67966;BMP280;54749;47.850;9.002;2023-03-15T07:18:13;95885.09;;;20.77
67966;BMP280;54749;47.850;9.002;2023-03-15T07:20:40;95869.56;;;21.27
67966;BMP280;54749;47.850;9.002;2023-03-15T07:23:07;95870.84;;;21.72
67966;BMP280;54749;47.850;9.002;2023-03-15T07:25:34;95878.56;;;21.92
67966;BMP280;54749;47.850;9.002;2023-03-15T07:28:18;95886.06;;;22.08
67966;BMP280;54749;47.850;9.002;2023-03-15T07:31:02;95909.22;;;22.08
67966;BMP280;54749;47.850;9.002;2023-03-15T07:33:31;95915.28;;;21.45
67966;BMP280;54749;47.850;9.002;2023-03-15T07:35:58;95919.84;;;21.15
67966;BMP280;54749;47.850;9.002;2023-03-15T07:38:26;95945.59;;;20.65
67966;BMP280;54749;47.850;9.002;2023-03-15T07:40:55;95932.94;;;21.34
67966;BMP280;54749;47.850;9.002;2023-03-15T07:43:22;95933.59;;;22.32
67966;BMP280;54749;47.850;9.002;2023-03-15T07:45:58;95942.97;;;22.60
67966;BMP280;54749;47.850;9.002;2023-03-15T07:48:26;95929.97;;;22.74
67966;BMP280;54749;47.850;9.002;2023-03-15T07:50:54;95936.25;;;22.92
67966;BMP280;54749;47.850;9.002;2023-03-15T07:53:22;95944.09;;;23.11
67966;BMP280;54749;47.850;9.002;2023-03-15T07:55:49;95956.31;;;22.69
67966;BMP280;54749;47.850;9.002;2023-03-15T07:58:16;95946.09;;;23.42
67966;BMP280;54749;47.850;9.002;2023-03-15T08:00:46;95956.59;;;23.40
67966;BMP280;54749;47.850;9.002;2023-03-15T08:03:13;95946.28;;;23.92
67966;BMP280;54749;47.850;9.002;2023-03-15T08:05:40;95945.56;;;24.74
67966;BMP280;54749;47.850;9.002;2023-03-15T08:08:07;95955.09;;;25.05
67966;BMP280;54749;47.850;9.002;2023-03-15T08:10:34;95956.84;;;24.16
67966;BMP280;54749;47.850;9.002;2023-03-15T08:13:01;95967.53;;;23.94
67966;BMP280;54749;47.850;9.002;2023-03-15T08:15:28;95974.31;;;23.50
67966;BMP280;54749;47.850;9.002;2023-03-15T08:17:55;95970.25;;;23.87
67966;BMP280;54749;47.850;9.002;2023-03-15T08:20:22;95964.47;;;24.68
67966;BMP280;54749;47.850;9.002;2023-03-15T08:22:49;95971.19;;;25.07
67966;BMP280;54749;47.850;9.002;2023-03-15T08:25:20;95965.59;;;25.35
67966;BMP280;54749;47.850;9.002;2023-03-15T08:27:48;95965.59;;;25.29
67966;BMP280;54749;47.850;9.002;2023-03-15T08:30:16;95973.16;;;25.30
67966;BMP280;54749;47.850;9.002;2023-03-15T08:32:45;95964.03;;;25.28
67966;BMP280;54749;47.850;9.002;2023-03-15T08:35:13;95974.56;;;24.51
67966;BMP280;54749;47.850;9.002;2023-03-15T08:37:42;95988.47;;;23.72
67966;BMP280;54749;47.850;9.002;2023-03-15T08:40:18;95991.06;;;23.72
67966;BMP280;54749;47.850;9.002;2023-03-15T08:42:52;95994.56;;;23.98
67966;BMP280;54749;47.850;9.002;2023-03-15T08:45:20;95991.09;;;23.39
67966;BMP280;54749;47.850;9.002;2023-03-15T08:47:59;95991.31;;;23.84
67966;BMP280;54749;47.850;9.002;2023-03-15T08:50:27;95997.75;;;23.54
67966;BMP280;54749;47.850;9.002;2023-03-15T08:52:57;95991.09;;;24.37
67966;BMP280;54749;47.850;9.002;2023-03-15T08:55:24;95977.56;;;25.24
67966;BMP280;54749;47.850;9.002;2023-03-15T08:57:51;95992.53;;;25.77
67966;BMP280;54749;47.850;9.002;2023-03-15T09:00:18;95971.16;;;26.31
67966;BMP280;54749;47.850;9.002;2023-03-15T09:02:49;95974.63;;;26.12
67966;BMP280;54749;47.850;9.002;2023-03-15T09:05:21;95979.75;;;25.27
67966;BMP280;54749;47.850;9.002;2023-03-15T09:07:48;96001.47;;;25.00
67966;BMP280;54749;47.850;9.002;2023-03-15T09:10:16;95986.25;;;25.42
67966;BMP280;54749;47.850;9.002;2023-03-15T09:12:46;95995.50;;;25.06
67966;BMP280;54749;47.850;9.002;2023-03-15T09:15:14;95993.84;;;26.35
67966;BMP280;54749;47.850;9.002;2023-03-15T09:17:41;95992.69;;;26.85
67966;BMP280;54749;47.850;9.002;2023-03-15T09:20:11;96002.16;;;27.04
67966;BMP280;54749;47.850;9.002;2023-03-15T09:22:42;96000.72;;;26.84
67966;BMP280;54749;47.850;9.002;2023-03-15T09:25:09;96003.50;;;26.82
67966;BMP280;54749;47.850;9.002;2023-03-15T09:27:37;96014.59;;;24.80
67966;BMP280;54749;47.850;9.002;2023-03-15T09:30:04;96025.44;;;24.31
67966;BMP280;54749;47.850;9.002;2023-03-15T09:32:32;96022.25;;;24.29
67966;BMP280;54749;47.850;9.002;2023-03-15T09:35:04;96028.63;;;23.81
67966;BMP280;54749;47.850;9.002;2023-03-15T09:37:32;96020.16;;;24.90
67966;BMP280;54749;47.850;9.002;2023-03-15T09:39:59;96013.72;;;25.55
67966;BMP280;54749;47.850;9.002;2023-03-15T09:45:31;96042.38;;;21.51
67966;BMP280;54749;47.850;9.002;2023-03-15T09:48:10;96048.81;;;21.89
67966;BMP280;54749;47.850;9.002;2023-03-15T09:50:50;96043.13;;;21.79
67966;BMP280;54749;47.850;9.002;2023-03-15T09:53:49;96024.94;;;23.96
67966;BMP280;54749;47.850;9.002;2023-03-15T09:56:26;96039.72;;;24.15
67966;BMP280;54749;47.850;9.002;2023-03-15T09:58:57;96052.59;;;22.07
67966;BMP280;54749;47.850;9.002;2023-03-15T10:01:30;96041.56;;;21.50
67966;BMP280;54749;47.850;9.002;2023-03-15T10:04:04;96078.69;;;18.11
67966;BMP280;54749;47.850;9.002;2023-03-15T10:06:34;96066.56;;;19.06
67966;BMP280;54749;47.850;9.002;2023-03-15T10:09:15;96069.13;;;18.67
67966;BMP280;54749;47.850;9.002;2023-03-15T10:12:02;96062.72;;;19.10
67966;BMP280;54749;47.850;9.002;2023-03-15T10:17:12;96069.19;;;17.88
67966;BMP280;54749;47.850;9.002;2023-03-15T10:19:48;96066.06;;;17.29
67966;BMP280;54749;47.850;9.002;2023-03-15T10:22:30;96074.50;;;16.80
67966;BMP280;54749;47.850;9.002;2023-03-15T10:25:09;96065.00;;;16.89
67966;BMP280;54749;47.850;9.002;2023-03-15T10:27:46;96067.00;;;15.93
67966;BMP280;54749;47.850;9.002;2023-03-15T10:30:22;96073.75;;;15.94
67966;BMP280;54749;47.850;9.002;2023-03-15T10:33:01;96059.94;;;17.87
67966;BMP280;54749;47.850;9.002;2023-03-15T10:35:30;96047.25;;;19.41
67966;BMP280;54749;47.850;9.002;2023-03-15T10:37:58;96033.97;;;20.92
67966;BMP280;54749;47.850;9.002;2023-03-15T10:40:39;96049.63;;;20.17
67966;BMP280;54749;47.850;9.002;2023-03-15T10:43:16;96042.63;;;19.82
67966;BMP280;54749;47.850;9.002;2023-03-15T10:45:59;96045.25;;;20.26
67966;BMP280;54749;47.850;9.002;2023-03-15T10:48:33;96034.28;;;21.68
67966;BMP280;54749;47.850;9.002;2023-03-15T10:51:06;96016.03;;;23.26
67966;BMP280;54749;47.850;9.002;2023-03-15T10:54:04;96012.81;;;23.90
67966;BMP280;54749;47.850;9.002;2023-03-15T10:59:33;96041.69;;;20.35
67966;BMP280;54749;47.850;9.002;2023-03-15T11:04:43;96048.34;;;18.39
67966;BMP280;54749;47.850;9.002;2023-03-15T11:07:13;96033.97;;;20.13
67966;BMP280;54749;47.850;9.002;2023-03-15T11:09:52;96021.31;;;21.47
67966;BMP280;54749;47.850;9.002;2023-03-15T11:12:22;96015.88;;;22.40
67966;BMP280;54749;47.850;9.002;2023-03-15T11:15:11;96005.13;;;22.98
67966;BMP280;54749;47.850;9.002;2023-03-15T11:17:45;96012.88;;;23.04
67966;BMP280;54749;47.850;9.002;2023-03-15T11:22:45;96025.59;;;20.76
67966;BMP280;54749;47.850;9.002;2023-03-15T11:25:13;96042.16;;;17.78
67966;BMP280;54749;47.850;9.002;2023-03-15T11:27:41;96050.41;;;15.89
67966;BMP280;54749;47.850;9.002;2023-03-15T11:30:14;96047.31;;;15.16
67966;BMP280;54749;47.850;9.002;2023-03-15T11:32:42;96038.69;;;14.28
67966;BMP280;54749;47.850;9.002;2023-03-15T11:35:18;96047.72;;;13.66
67966;BMP280;54749;47.850;9.002;2023-03-15T11:37:57;96044.72;;;13.51
67966;BMP280;54749;47.850;9.002;2023-03-15T11:40:42;96052.09;;;13.16
67966;BMP280;54749;47.850;9.002;2023-03-15T11:46:09;96049.34;;;12.50
67966;BMP280;54749;47.850;9.002;2023-03-15T11:48:51;96051.66;;;12.02
67966;BMP280;54749;47.850;9.002;2023-03-15T11:51:21;96041.38;;;12.14
67966;BMP280;54749;47.850;9.002;2023-03-15T11:54:13;96038.16;;;12.52
67966;BMP280;54749;47.850;9.002;2023-03-15T11:56:51;96038.25;;;12.91
67966;BMP280;54749;47.850;9.002;2023-03-15T12:02:05;96038.47;;;12.59
67966;BMP280;54749;47.850;9.002;2023-03-15T12:04:57;96039.28;;;12.59
67966;BMP280;54749;47.850;9.002;2023-03-15T12:07:56;96028.25;;;12.49
67966;BMP280;54749;47.850;9.002;2023-03-15T12:10:31;96021.09;;;12.34
67966;BMP280;54749;47.850;9.002;2023-03-15T12:13:15;96024.19;;;12.18
67966;BMP280;54749;47.850;9.002;2023-03-15T12:15:44;96018.59;;;12.04
67966;BMP280;54749;47.850;9.002;2023-03-15T12:18:17;96029.63;;;11.83
67966;BMP280;54749;47.850;9.002;2023-03-15T12:21:04;96026.91;;;11.75
67966;BMP280;54749;47.850;9.002;2023-03-15T12:23:42;96018.88;;;11.70
67966;BMP280;54749;47.850;9.002;2023-03-15T12:29:25;96019.38;;;12.15
67966;BMP280;54749;47.850;9.002;2023-03-15T12:31:56;96001.06;;;12.71
67966;BMP280;54749;47.850;9.002;2023-03-15T12:37:23;96008.06;;;12.19
67966;BMP280;54749;47.850;9.002;2023-03-15T12:53:33;95995.03;;;12.63
67966;BMP280;54749;47.850;9.002;2023-03-15T12:56:29;96004.47;;;12.21
67966;BMP280;54749;47.850;9.002;2023-03-15T13:01:50;96003.16;;;12.26
67966;BMP280;54749;47.850;9.002;2023-03-15T13:04:17;96007.66;;;12.43
67966;BMP280;54749;47.850;9.002;2023-03-15T13:06:53;96000.16;;;12.32
67966;BMP280;54749;47.850;9.002;2023-03-15T13:12:15;96011.44;;;11.89
67966;BMP280;54749;47.850;9.002;2023-03-15T13:14:51;96004.72;;;11.37
67966;BMP280;54749;47.850;9.002;2023-03-15T13:20:37;95996.34;;;10.83
67966;BMP280;54749;47.850;9.002;2023-03-15T13:28:49;95982.88;;;11.25
67966;BMP280;54749;47.850;9.002;2023-03-15T13:31:21;95989.63;;;11.46
67966;BMP280;54749;47.850;9.002;2023-03-15T13:33:51;95994.91;;;11.43
67966;BMP280;54749;47.850;9.002;2023-03-15T13:36:39;96003.91;;;11.37
67966;BMP280;54749;47.850;9.002;2023-03-15T13:39:50;95999.59;;;11.58
67966;BMP280;54749;47.850;9.002;2023-03-15T13:42:19;95987.13;;;11.86
67966;BMP280;54749;47.850;9.002;2023-03-15T13:44:46;95991.84;;;12.30
67966;BMP280;54749;47.850;9.002;2023-03-15T13:47:18;96001.41;;;11.87
67966;BMP280;54749;47.850;9.002;2023-03-15T13:49:51;95996.88;;;11.71
67966;BMP280;54749;47.850;9.002;2023-03-15T13:52:18;95984.78;;;11.74
67966;BMP280;54749;47.850;9.002;2023-03-15T13:54:45;95989.47;;;11.58
67966;BMP280;54749;47.850;9.002;2023-03-15T13:57:17;95990.84;;;11.52
67966;BMP280;54749;47.850;9.002;2023-03-15T14:02:21;95997.41;;;11.54
67966;BMP280;54749;47.850;9.002;2023-03-15T14:04:55;95992.25;;;11.45
67966;BMP280;54749;47.850;9.002;2023-03-15T14:07:36;95984.94;;;11.31
67966;BMP280;54749;47.850;9.002;2023-03-15T14:10:18;95989.44;;;11.06
67966;BMP280;54749;47.850;9.002;2023-03-15T14:12:49;95987.03;;;11.05
67966;BMP280;54749;47.850;9.002;2023-03-15T14:15:22;95984.72;;;11.13
67966;BMP280;54749;47.850;9.002;2023-03-15T14:20:51;95988.94;;;11.75
67966;BMP280;54749;47.850;9.002;2023-03-15T14:23:23;95987.28;;;11.85
67966;BMP280;54749;47.850;9.002;2023-03-15T14:25:52;95994.72;;;11.66
67966;BMP280;54749;47.850;9.002;2023-03-15T14:28:20;95997.72;;;11.60
67966;BMP280;54749;47.850;9.002;2023-03-15T14:30:55;95999.59;;;11.58
67966;BMP280;54749;47.850;9.002;2023-03-15T14:33:37;95990.81;;;11.62
67966;BMP280;54749;47.850;9.002;2023-03-15T14:36:19;95998.88;;;11.67
67966;BMP280;54749;47.850;9.002;2023-03-15T14:38:54;95998.63;;;11.70
67966;BMP280;54749;47.850;9.002;2023-03-15T14:43:52;95993.56;;;11.70
67966;BMP280;54749;47.850;9.002;2023-03-15T14:46:20;95994.69;;;11.46
67966;BMP280;54749;47.850;9.002;2023-03-15T14:48:49;95991.06;;;11.07
67966;BMP280;54749;47.850;9.002;2023-03-15T14:51:19;95994.75;;;10.61
67966;BMP280;54749;47.850;9.002;2023-03-15T14:53:48;95991.75;;;10.45
67966;BMP280;54749;47.850;9.002;2023-03-15T14:56:16;96003.13;;;10.29
67966;BMP280;54749;47.850;9.002;2023-03-15T14:58:45;96003.78;;;10.20
67966;BMP280;54749;47.850;9.002;2023-03-15T15:01:16;95993.56;;;10.22
67966;BMP280;54749;47.850;9.002;2023-03-15T15:03:51;95994.84;;;10.27
67966;BMP280;54749;47.850;9.002;2023-03-15T15:06:19;95988.44;;;10.45
67966;BMP280;54749;47.850;9.002;2023-03-15T15:08:47;95987.88;;;10.63
67966;BMP280;54749;47.850;9.002;2023-03-15T15:11:15;95984.06;;;10.57
67966;BMP280;54749;47.850;9.002;2023-03-15T15:13:42;95981.66;;;10.45
67966;BMP280;54749;47.850;9.002;2023-03-15T15:16:09;95985.22;;;10.43
67966;BMP280;54749;47.850;9.002;2023-03-15T15:18:36;95989.69;;;10.29
67966;BMP280;54749;47.850;9.002;2023-03-15T15:21:12;95993.22;;;10.15
67966;BMP280;54749;47.850;9.002;2023-03-15T15:23:42;95991.13;;;9.99
67966;BMP280;54749;47.850;9.002;2023-03-15T15:26:26;95989.94;;;9.92
67966;BMP280;54749;47.850;9.002;2023-03-15T15:28:53;95990.88;;;9.91
67966;BMP280;54749;47.850;9.002;2023-03-15T15:31:22;95989.69;;;9.84
67966;BMP280;54749;47.850;9.002;2023-03-15T15:33:51;96005.25;;;9.79
67966;BMP280;54749;47.850;9.002;2023-03-15T15:36:23;96006.91;;;9.67
67966;BMP280;54749;47.850;9.002;2023-03-15T15:38:51;96009.91;;;9.72
67966;BMP280;54749;47.850;9.002;2023-03-15T15:41:21;96018.16;;;9.86
67966;BMP280;54749;47.850;9.002;2023-03-15T15:43:50;96012.66;;;9.92
67966;BMP280;54749;47.850;9.002;2023-03-15T15:46:17;96023.41;;;9.83
67966;BMP280;54749;47.850;9.002;2023-03-15T15:48:44;96015.78;;;9.73
67966;BMP280;54749;47.850;9.002;2023-03-15T15:51:17;96021.94;;;9.46